sensor_id;sensor_type;location;lat;lon;timestamp;pressure;altitude;pressure_sealevel;temperature;humidity
19508;BME280;40157;42.566;27.526;2023-02-15T00:01:43;102235.88;;;6.19;66.16
19508;BME280;40157;42.566;27.526;2023-02-15T00:03:43;102191.84;;;5.93;65.95
19508;BME280;40157;42.566;27.526;2023-02-15T00:05:44;102231.31;;;6.15;66.23
19508;BME280;40157;42.566;27.526;2023-02-15T00:07:44;102248.97;;;6.20;65.87
19508;BME280;40157;42.566;27.526;2023-02-15T00:09:46;102238.19;;;6.14;65.93
19508;BME280;40157;42.566;27.526;2023-02-15T00:11:46;102237.13;;;6.10;65.98
19508;BME280;40157;42.566;27.526;2023-02-15T00:13:50;102243.78;;;6.20;65.94
19508;BME280;40157;42.566;27.526;2023-02-15T00:15:50;102246.09;;;6.16;66.10
19508;BME280;40157;42.566;27.526;2023-02-15T00:17:51;102236.41;;;6.13;66.08
19508;BME280;40157;42.566;27.526;2023-02-15T00:19:51;102225.81;;;6.10;66.17
19508;BME280;40157;42.566;27.526;2023-02-15T00:21:51;102250.78;;;6.21;66.47
19508;BME280;40157;42.566;27.526;2023-02-15T00:23:52;102264.78;;;6.23;66.35
19508;BME280;40157;42.566;27.526;2023-02-15T00:26:05;102244.31;;;6.15;66.39
19508;BME280;40157;42.566;27.526;2023-02-15T00:28:05;102236.94;;;6.07;66.26
19508;BME280;40157;42.566;27.526;2023-02-15T00:30:06;102260.28;;;6.21;66.44
19508;BME280;40157;42.566;27.526;2023-02-15T00:32:07;102216.66;;;6.02;66.53
19508;BME280;40157;42.566;27.526;2023-02-15T00:34:19;102251.69;;;6.22;66.57
19508;BME280;40157;42.566;27.526;2023-02-15T00:36:19;102248.88;;;6.19;66.87
19508;BME280;40157;42.566;27.526;2023-02-15T00:38:20;102256.16;;;6.24;66.66
19508;BME280;40157;42.566;27.526;2023-02-15T00:40:20;102252.03;;;6.28;66.60
19508;BME280;40157;42.566;27.526;2023-02-15T00:42:21;102259.22;;;6.32;66.39
19508;BME280;40157;42.566;27.526;2023-02-15T00:44:21;102230.94;;;6.23;66.48
19508;BME280;40157;42.566;27.526;2023-02-15T00:46:22;102234.44;;;6.24;66.46
19508;BME280;40157;42.566;27.526;2023-02-15T00:48:22;102248.97;;;6.35;66.32
19508;BME280;40157;42.566;27.526;2023-02-15T00:50:23;102249.88;;;6.36;66.36
19508;BME280;40157;42.566;27.526;2023-02-15T00:52:23;102214.75;;;6.14;66.30
19508;BME280;40157;42.566;27.526;2023-02-15T00:54:24;102238.75;;;6.38;66.30
19508;BME280;40157;42.566;27.526;2023-02-15T00:56:24;102242.31;;;6.40;66.25
19508;BME280;40157;42.566;27.526;2023-02-15T00:58:25;102240.53;;;6.39;66.13
19508;BME280;40157;42.566;27.526;2023-02-15T01:00:26;102219.88;;;6.27;66.23
19508;BME280;40157;42.566;27.526;2023-02-15T01:02:26;102193.84;;;6.13;66.19
19508;BME280;40157;42.566;27.526;2023-02-15T01:04:27;102226.16;;;6.31;66.26
19508;BME280;40157;42.566;27.526;2023-02-15T01:06:27;102230.09;;;6.39;66.05
19508;BME280;40157;42.566;27.526;2023-02-15T01:08:27;102220.94;;;6.31;65.94
19508;BME280;40157;42.566;27.526;2023-02-15T01:10:28;102181.09;;;6.02;66.41
19508;BME280;40157;42.566;27.526;2023-02-15T01:12:29;102237.59;;;6.33;66.69
19508;BME280;40157;42.566;27.526;2023-02-15T01:14:29;102234.78;;;6.30;66.71
19508;BME280;40157;42.566;27.526;2023-02-15T01:16:30;102225.44;;;6.19;66.90
19508;BME280;40157;42.566;27.526;2023-02-15T01:18:30;102232.19;;;6.30;66.77
19508;BME280;40157;42.566;27.526;2023-02-15T01:20:35;102214.66;;;6.13;66.62
19508;BME280;40157;42.566;27.526;2023-02-15T01:22:37;102214.16;;;6.03;66.69
19508;BME280;40157;42.566;27.526;2023-02-15T01:24:37;102235.69;;;6.16;66.75
19508;BME280;40157;42.566;27.526;2023-02-15T01:26:38;102149.13;;;5.75;66.63
19508;BME280;40157;42.566;27.526;2023-02-15T01:28:38;102234.06;;;6.18;66.48
19508;BME280;40157;42.566;27.526;2023-02-15T01:30:39;102219.16;;;6.00;66.50
19508;BME280;40157;42.566;27.526;2023-02-15T01:32:39;102214.66;;;6.13;65.97
19508;BME280;40157;42.566;27.526;2023-02-15T01:34:40;102218.00;;;6.10;66.00
19508;BME280;40157;42.566;27.526;2023-02-15T01:36:41;102214.94;;;6.02;66.01
19508;BME280;40157;42.566;27.526;2023-02-15T01:38:41;102236.25;;;6.10;66.21
19508;BME280;40157;42.566;27.526;2023-02-15T01:40:41;102235.16;;;6.06;66.03
19508;BME280;40157;42.566;27.526;2023-02-15T01:42:43;102195.88;;;5.73;66.65
19508;BME280;40157;42.566;27.526;2023-02-15T01:44:48;102244.22;;;5.98;66.79
19508;BME280;40157;42.566;27.526;2023-02-15T01:46:51;102220.75;;;5.83;66.86
19508;BME280;40157;42.566;27.526;2023-02-15T01:49:00;102216.06;;;5.78;66.83
19508;BME280;40157;42.566;27.526;2023-02-15T01:51:02;102228.47;;;5.82;66.98
19508;BME280;40157;42.566;27.526;2023-02-15T01:53:16;102247.84;;;5.87;67.13
19508;BME280;40157;42.566;27.526;2023-02-15T01:55:20;102209.56;;;5.56;67.58
19508;BME280;40157;42.566;27.526;2023-02-15T01:57:23;102246.94;;;5.71;67.58
19508;BME280;40157;42.566;27.526;2023-02-15T01:59:25;102254.59;;;5.55;68.15
19508;BME280;40157;42.566;27.526;2023-02-15T02:01:27;102149.97;;;5.03;68.08
19508;BME280;40157;42.566;27.526;2023-02-15T02:03:57;102244.91;;;5.52;67.81
19508;BME280;40157;42.566;27.526;2023-02-15T02:05:59;102241.84;;;5.45;68.38
19508;BME280;40157;42.566;27.526;2023-02-15T02:08:01;102254.41;;;5.52;68.45
19508;BME280;40157;42.566;27.526;2023-02-15T02:10:04;102213.88;;;5.27;68.46
19508;BME280;40157;42.566;27.526;2023-02-15T02:12:05;102222.66;;;5.29;69.06
19508;BME280;40157;42.566;27.526;2023-02-15T02:14:07;102244.50;;;5.31;69.06
19508;BME280;40157;42.566;27.526;2023-02-15T02:16:25;102221.81;;;5.15;69.32
19508;BME280;40157;42.566;27.526;2023-02-15T02:20:55;102231.13;;;5.12;69.74
19508;BME280;40157;42.566;27.526;2023-02-15T02:30:54;102231.75;;;4.94;70.29
19508;BME280;40157;42.566;27.526;2023-02-15T02:35:56;102237.59;;;4.77;71.24
19508;BME280;40157;42.566;27.526;2023-02-15T02:38:08;102231.00;;;4.69;71.40
19508;BME280;40157;42.566;27.526;2023-02-15T02:40:29;102193.25;;;4.34;71.70
19508;BME280;40157;42.566;27.526;2023-02-15T02:42:46;102203.13;;;4.39;71.85
19508;BME280;40157;42.566;27.526;2023-02-15T02:44:54;102247.78;;;4.47;71.85
19508;BME280;40157;42.566;27.526;2023-02-15T02:47:01;102241.59;;;4.45;71.82
19508;BME280;40157;42.566;27.526;2023-02-15T02:49:02;102250.47;;;4.35;72.21
19508;BME280;40157;42.566;27.526;2023-02-15T02:51:03;102230.69;;;4.24;72.33
19508;BME280;40157;42.566;27.526;2023-02-15T02:53:03;102212.50;;;4.24;72.18
19508;BME280;40157;42.566;27.526;2023-02-15T02:55:08;102233.69;;;4.30;72.37
19508;BME280;40157;42.566;27.526;2023-02-15T02:57:10;102257.75;;;4.41;72.40
19508;BME280;40157;42.566;27.526;2023-02-15T02:59:20;102245.75;;;4.30;72.77
19508;BME280;40157;42.566;27.526;2023-02-15T03:01:33;102239.38;;;4.24;72.92
19508;BME280;40157;42.566;27.526;2023-02-15T03:03:47;102241.25;;;4.14;73.01
19508;BME280;40157;42.566;27.526;2023-02-15T03:05:54;102252.59;;;4.02;73.75
19508;BME280;40157;42.566;27.526;2023-02-15T03:07:55;102250.88;;;3.89;73.91
19508;BME280;40157;42.566;27.526;2023-02-15T03:09:58;102244.13;;;3.92;74.22
19508;BME280;40157;42.566;27.526;2023-02-15T03:12:01;102170.34;;;3.49;73.86
19508;BME280;40157;42.566;27.526;2023-02-15T03:14:03;102240.31;;;3.86;74.81
19508;BME280;40157;42.566;27.526;2023-02-15T03:16:05;102256.59;;;3.97;74.53
19508;BME280;40157;42.566;27.526;2023-02-15T03:18:31;102263.06;;;3.91;74.10
19508;BME280;40157;42.566;27.526;2023-02-15T03:20:36;102257.78;;;4.02;74.31
19508;BME280;40157;42.566;27.526;2023-02-15T03:22:43;102240.81;;;3.94;74.24
19508;BME280;40157;42.566;27.526;2023-02-15T03:27:34;102251.22;;;4.07;74.21
19508;BME280;40157;42.566;27.526;2023-02-15T03:29:36;102255.03;;;4.13;74.17
19508;BME280;40157;42.566;27.526;2023-02-15T03:31:40;102222.34;;;4.03;73.98
19508;BME280;40157;42.566;27.526;2023-02-15T03:33:54;102271.69;;;4.16;73.88
19508;BME280;40157;42.566;27.526;2023-02-15T03:36:08;102276.88;;;4.16;73.74
19508;BME280;40157;42.566;27.526;2023-02-15T03:38:15;102289.75;;;4.01;73.97
19508;BME280;40157;42.566;27.526;2023-02-15T03:40:18;102291.84;;;4.07;73.93
19508;BME280;40157;42.566;27.526;2023-02-15T03:42:39;102300.63;;;4.09;73.93
19508;BME280;40157;42.566;27.526;2023-02-15T03:44:49;102293.44;;;4.05;74.32
19508;BME280;40157;42.566;27.526;2023-02-15T03:47:08;102290.97;;;4.06;74.33
19508;BME280;40157;42.566;27.526;2023-02-15T03:49:36;102292.63;;;4.06;73.93
19508;BME280;40157;42.566;27.526;2023-02-15T03:51:42;102260.78;;;3.95;74.11
19508;BME280;40157;42.566;27.526;2023-02-15T03:53:45;102283.84;;;4.04;73.73
19508;BME280;40157;42.566;27.526;2023-02-15T03:55:52;102256.91;;;4.02;73.72
19508;BME280;40157;42.566;27.526;2023-02-15T03:57:54;102253.28;;;3.86;73.55
19508;BME280;40157;42.566;27.526;2023-02-15T04:00:17;102296.56;;;4.26;73.22
19508;BME280;40157;42.566;27.526;2023-02-15T04:03:23;102315.28;;;4.34;73.09
19508;BME280;40157;42.566;27.526;2023-02-15T04:05:28;102294.41;;;4.32;72.66
19508;BME280;40157;42.566;27.526;2023-02-15T04:07:29;102308.88;;;4.29;72.59
19508;BME280;40157;42.566;27.526;2023-02-15T04:09:29;102313.69;;;4.36;72.61
19508;BME280;40157;42.566;27.526;2023-02-15T04:11:48;102305.69;;;4.33;72.28
19508;BME280;40157;42.566;27.526;2023-02-15T04:13:49;102314.94;;;4.16;73.05
19508;BME280;40157;42.566;27.526;2023-02-15T04:15:56;102313.16;;;4.15;72.54
19508;BME280;40157;42.566;27.526;2023-02-15T04:18:03;102306.69;;;4.21;72.52
19508;BME280;40157;42.566;27.526;2023-02-15T04:20:04;102320.25;;;4.31;72.29
19508;BME280;40157;42.566;27.526;2023-02-15T04:22:23;102313.09;;;4.40;72.38
19508;BME280;40157;42.566;27.526;2023-02-15T04:24:42;102306.78;;;4.36;71.68
19508;BME280;40157;42.566;27.526;2023-02-15T04:27:01;102323.78;;;4.44;71.52
19508;BME280;40157;42.566;27.526;2023-02-15T04:29:02;102319.19;;;4.40;71.31
19508;BME280;40157;42.566;27.526;2023-02-15T04:31:05;102305.69;;;4.33;70.89
19508;BME280;40157;42.566;27.526;2023-02-15T04:33:06;102310.50;;;4.40;71.19
19508;BME280;40157;42.566;27.526;2023-02-15T04:35:07;102339.75;;;4.37;70.89
19508;BME280;40157;42.566;27.526;2023-02-15T04:37:09;102325.47;;;4.31;70.84
19508;BME280;40157;42.566;27.526;2023-02-15T04:39:13;102326.88;;;4.39;70.81
19508;BME280;40157;42.566;27.526;2023-02-15T04:41:13;102348.66;;;4.54;70.28
19508;BME280;40157;42.566;27.526;2023-02-15T04:43:14;102338.50;;;4.57;70.31
19508;BME280;40157;42.566;27.526;2023-02-15T04:45:14;102342.59;;;4.54;69.98
19508;BME280;40157;42.566;27.526;2023-02-15T04:47:15;102342.91;;;4.58;69.80
19508;BME280;40157;42.566;27.526;2023-02-15T04:49:15;102323.41;;;4.52;69.72
19508;BME280;40157;42.566;27.526;2023-02-15T04:51:16;102347.28;;;4.59;69.70
19508;BME280;40157;42.566;27.526;2023-02-15T04:53:16;102339.88;;;4.52;69.52
19508;BME280;40157;42.566;27.526;2023-02-15T04:55:18;102358.09;;;4.66;69.64
19508;BME280;40157;42.566;27.526;2023-02-15T04:57:18;102349.72;;;4.70;69.32
19508;BME280;40157;42.566;27.526;2023-02-15T04:59:19;102351.91;;;4.77;69.02
19508;BME280;40157;42.566;27.526;2023-02-15T05:01:19;102348.69;;;4.81;68.77
19508;BME280;40157;42.566;27.526;2023-02-15T05:03:20;102350.50;;;4.82;68.40
19508;BME280;40157;42.566;27.526;2023-02-15T05:05:21;102345.81;;;4.76;67.94
19508;BME280;40157;42.566;27.526;2023-02-15T05:07:21;102327.53;;;4.75;67.86
19508;BME280;40157;42.566;27.526;2023-02-15T05:09:22;102366.53;;;5.02;67.46
19508;BME280;40157;42.566;27.526;2023-02-15T05:11:22;102362.84;;;4.98;67.04
19508;BME280;40157;42.566;27.526;2023-02-15T05:13:23;102359.72;;;5.04;66.89
19508;BME280;40157;42.566;27.526;2023-02-15T05:15:24;102363.50;;;4.95;67.13
19508;BME280;40157;42.566;27.526;2023-02-15T05:17:24;102350.41;;;4.94;67.14
19508;BME280;40157;42.566;27.526;2023-02-15T05:19:25;102384.72;;;5.02;67.00
19508;BME280;40157;42.566;27.526;2023-02-15T05:21:25;102393.31;;;5.00;66.89
19508;BME280;40157;42.566;27.526;2023-02-15T05:23:26;102383.13;;;5.04;67.22
19508;BME280;40157;42.566;27.526;2023-02-15T05:25:26;102377.91;;;5.04;66.64
19508;BME280;40157;42.566;27.526;2023-02-15T05:27:45;102383.31;;;5.07;66.52
19508;BME280;40157;42.566;27.526;2023-02-15T05:30:05;102356.31;;;4.91;66.46
19508;BME280;40157;42.566;27.526;2023-02-15T05:32:05;102381.09;;;4.99;66.19
19508;BME280;40157;42.566;27.526;2023-02-15T05:34:07;102406.50;;;5.17;66.37
19508;BME280;40157;42.566;27.526;2023-02-15T05:36:08;102405.09;;;5.22;65.88
19508;BME280;40157;42.566;27.526;2023-02-15T05:38:09;102392.31;;;5.12;65.88
19508;BME280;40157;42.566;27.526;2023-02-15T05:40:10;102409.41;;;5.22;66.16
19508;BME280;40157;42.566;27.526;2023-02-15T05:42:11;102401.13;;;5.82;80.26
19508;BME280;40157;42.566;27.526;2023-02-15T05:44:11;102401.97;;;6.82;88.32
19508;BME280;40157;42.566;27.526;2023-02-15T05:46:12;102400.78;;;7.22;86.74
19508;BME280;40157;42.566;27.526;2023-02-15T05:48:12;102416.28;;;7.04;76.14
19508;BME280;40157;42.566;27.526;2023-02-15T05:50:13;102426.16;;;6.65;69.78
19508;BME280;40157;42.566;27.526;2023-02-15T05:52:13;102409.78;;;6.53;70.80
19508;BME280;40157;42.566;27.526;2023-02-15T05:54:14;102420.84;;;6.63;71.55
19508;BME280;40157;42.566;27.526;2023-02-15T05:56:14;102352.22;;;6.05;69.00
19508;BME280;40157;42.566;27.526;2023-02-15T05:58:15;102403.38;;;6.04;67.06
19508;BME280;40157;42.566;27.526;2023-02-15T06:00:15;102442.41;;;6.18;66.33
19508;BME280;40157;42.566;27.526;2023-02-15T06:02:16;102414.75;;;6.20;66.68
19508;BME280;40157;42.566;27.526;2023-02-15T06:04:16;102443.47;;;6.35;65.29
19508;BME280;40157;42.566;27.526;2023-02-15T06:06:17;102416.84;;;6.25;65.01
19508;BME280;40157;42.566;27.526;2023-02-15T06:08:18;102445.53;;;6.40;64.77
19508;BME280;40157;42.566;27.526;2023-02-15T06:10:18;102426.66;;;6.44;65.42
19508;BME280;40157;42.566;27.526;2023-02-15T06:12:19;102458.69;;;6.57;63.91
19508;BME280;40157;42.566;27.526;2023-02-15T06:14:19;102441.97;;;6.53;63.55
19508;BME280;40157;42.566;27.526;2023-02-15T06:16:20;102393.59;;;6.28;63.45
19508;BME280;40157;42.566;27.526;2023-02-15T06:18:20;102456.38;;;6.76;63.97
19508;BME280;40157;42.566;27.526;2023-02-15T06:20:21;102426.31;;;6.38;63.35
19508;BME280;40157;42.566;27.526;2023-02-15T06:22:21;102449.50;;;6.48;62.56
19508;BME280;40157;42.566;27.526;2023-02-15T06:24:22;102419.91;;;6.33;62.34
19508;BME280;40157;42.566;27.526;2023-02-15T06:26:23;102445.19;;;6.49;61.84
19508;BME280;40157;42.566;27.526;2023-02-15T06:28:24;102457.38;;;6.35;61.57
19508;BME280;40157;42.566;27.526;2023-02-15T06:30:25;102409.16;;;6.14;61.72
19508;BME280;40157;42.566;27.526;2023-02-15T06:32:26;102451.59;;;6.26;61.79
19508;BME280;40157;42.566;27.526;2023-02-15T06:34:26;102463.41;;;6.21;62.00
19508;BME280;40157;42.566;27.526;2023-02-15T06:36:28;102457.66;;;6.11;62.62
19508;BME280;40157;42.566;27.526;2023-02-15T06:38:29;102452.25;;;6.08;62.89
19508;BME280;40157;42.566;27.526;2023-02-15T06:40:29;102461.25;;;6.14;62.80
19508;BME280;40157;42.566;27.526;2023-02-15T06:42:30;102457.22;;;6.19;62.88
19508;BME280;40157;42.566;27.526;2023-02-15T06:44:30;102458.94;;;6.18;62.99
19508;BME280;40157;42.566;27.526;2023-02-15T06:46:31;102382.44;;;5.74;63.00
19508;BME280;40157;42.566;27.526;2023-02-15T06:48:31;102373.06;;;5.63;63.12
19508;BME280;40157;42.566;27.526;2023-02-15T06:50:32;102477.28;;;6.20;63.09
19508;BME280;40157;42.566;27.526;2023-02-15T06:52:33;102452.84;;;6.04;63.18
19508;BME280;40157;42.566;27.526;2023-02-15T06:54:33;102475.88;;;6.11;63.37
19508;BME280;40157;42.566;27.526;2023-02-15T06:56:34;102469.66;;;6.09;63.66
19508;BME280;40157;42.566;27.526;2023-02-15T06:58:39;102463.16;;;6.03;63.54
19508;BME280;40157;42.566;27.526;2023-02-15T07:00:39;102424.66;;;5.84;63.77
19508;BME280;40157;42.566;27.526;2023-02-15T07:02:40;102457.91;;;6.01;63.61
19508;BME280;40157;42.566;27.526;2023-02-15T07:04:41;102469.28;;;6.03;63.77
19508;BME280;40157;42.566;27.526;2023-02-15T07:06:41;102471.28;;;6.07;63.90
19508;BME280;40157;42.566;27.526;2023-02-15T07:08:42;102458.88;;;6.03;63.81
19508;BME280;40157;42.566;27.526;2023-02-15T07:10:45;102475.44;;;6.19;63.84
19508;BME280;40157;42.566;27.526;2023-02-15T07:12:46;102450.63;;;6.10;63.78
19508;BME280;40157;42.566;27.526;2023-02-15T07:14:46;102460.47;;;6.15;63.89
19508;BME280;40157;42.566;27.526;2023-02-15T07:16:47;102461.84;;;6.23;64.31
19508;BME280;40157;42.566;27.526;2023-02-15T07:18:47;102459.69;;;6.30;63.64
19508;BME280;40157;42.566;27.526;2023-02-15T07:20:48;102458.06;;;6.33;62.76
19508;BME280;40157;42.566;27.526;2023-02-15T07:22:49;102461.44;;;6.45;61.97
19508;BME280;40157;42.566;27.526;2023-02-15T07:24:50;102468.91;;;6.54;61.98
19508;BME280;40157;42.566;27.526;2023-02-15T07:26:54;102431.72;;;6.41;60.43
19508;BME280;40157;42.566;27.526;2023-02-15T07:28:55;102449.88;;;6.55;60.30
19508;BME280;40157;42.566;27.526;2023-02-15T07:30:55;102449.25;;;6.59;60.72
19508;BME280;40157;42.566;27.526;2023-02-15T07:32:58;102442.78;;;6.67;60.06
19508;BME280;40157;42.566;27.526;2023-02-15T07:35:17;102460.56;;;6.74;60.23
19508;BME280;40157;42.566;27.526;2023-02-15T07:37:17;102428.31;;;6.57;61.06
19508;BME280;40157;42.566;27.526;2023-02-15T07:39:18;102466.72;;;6.90;60.56
19508;BME280;40157;42.566;27.526;2023-02-15T07:41:18;102459.06;;;6.93;59.66
19508;BME280;40157;42.566;27.526;2023-02-15T07:43:19;102461.25;;;7.00;59.02
19508;BME280;40157;42.566;27.526;2023-02-15T07:45:20;102464.13;;;7.04;56.75
19508;BME280;40157;42.566;27.526;2023-02-15T07:47:21;102439.91;;;6.92;57.28
19508;BME280;40157;42.566;27.526;2023-02-15T07:49:21;102415.19;;;6.85;57.50
19508;BME280;40157;42.566;27.526;2023-02-15T07:51:22;102462.69;;;7.10;56.24
19508;BME280;40157;42.566;27.526;2023-02-15T07:53:22;102421.66;;;6.92;55.66
19508;BME280;40157;42.566;27.526;2023-02-15T07:55:23;102448.13;;;7.13;54.65
19508;BME280;40157;42.566;27.526;2023-02-15T07:57:24;102426.53;;;7.01;56.67
19508;BME280;40157;42.566;27.526;2023-02-15T07:59:25;102412.50;;;6.99;55.37
19508;BME280;40157;42.566;27.526;2023-02-15T08:01:27;102436.25;;;7.18;55.77
19508;BME280;40157;42.566;27.526;2023-02-15T08:03:29;102469.66;;;7.40;54.70
19508;BME280;40157;42.566;27.526;2023-02-15T08:05:30;102476.13;;;7.47;53.59
19508;BME280;40157;42.566;27.526;2023-02-15T08:07:30;102447.91;;;7.40;54.11
19508;BME280;40157;42.566;27.526;2023-02-15T08:09:31;102444.09;;;7.50;52.70
19508;BME280;40157;42.566;27.526;2023-02-15T08:11:33;102463.53;;;7.55;50.93
19508;BME280;40157;42.566;27.526;2023-02-15T08:13:37;102440.53;;;7.33;50.92
19508;BME280;40157;42.566;27.526;2023-02-15T08:15:53;102442.50;;;7.37;50.43
19508;BME280;40157;42.566;27.526;2023-02-15T08:17:54;102452.94;;;7.37;51.15
19508;BME280;40157;42.566;27.526;2023-02-15T08:19:54;102459.22;;;7.40;50.48
19508;BME280;40157;42.566;27.526;2023-02-15T08:22:05;102471.28;;;7.53;52.22
19508;BME280;40157;42.566;27.526;2023-02-15T08:24:07;102465.50;;;7.59;50.90
19508;BME280;40157;42.566;27.526;2023-02-15T08:26:08;102472.03;;;7.67;50.26
19508;BME280;40157;42.566;27.526;2023-02-15T08:28:08;102435.63;;;7.54;51.12
19508;BME280;40157;42.566;27.526;2023-02-15T08:30:09;102469.41;;;7.82;51.45
19508;BME280;40157;42.566;27.526;2023-02-15T08:32:11;102465.97;;;7.83;50.58
19508;BME280;40157;42.566;27.526;2023-02-15T08:34:15;102476.91;;;7.92;49.60
19508;BME280;40157;42.566;27.526;2023-02-15T08:36:18;102448.72;;;7.70;49.00
19508;BME280;40157;42.566;27.526;2023-02-15T08:38:18;102471.75;;;7.77;48.80
19508;BME280;40157;42.566;27.526;2023-02-15T08:40:19;102472.44;;;7.58;49.21
19508;BME280;40157;42.566;27.526;2023-02-15T08:42:20;102474.88;;;7.40;49.39
19508;BME280;40157;42.566;27.526;2023-02-15T08:44:21;102466.63;;;7.33;50.11
19508;BME280;40157;42.566;27.526;2023-02-15T08:46:27;102441.63;;;7.21;50.06
19508;BME280;40157;42.566;27.526;2023-02-15T08:48:28;102435.34;;;7.18;50.87
19508;BME280;40157;42.566;27.526;2023-02-15T08:50:29;102460.13;;;7.41;50.55
19508;BME280;40157;42.566;27.526;2023-02-15T08:52:29;102408.81;;;7.10;50.93
19508;BME280;40157;42.566;27.526;2023-02-15T08:54:30;102472.72;;;7.48;50.42
19508;BME280;40157;42.566;27.526;2023-02-15T08:56:34;102479.03;;;7.52;50.77
19508;BME280;40157;42.566;27.526;2023-02-15T08:58:35;102487.44;;;7.63;51.82
19508;BME280;40157;42.566;27.526;2023-02-15T09:00:36;102490.59;;;7.72;50.33
19508;BME280;40157;42.566;27.526;2023-02-15T09:02:36;102471.34;;;7.70;50.06
19508;BME280;40157;42.566;27.526;2023-02-15T09:04:37;102418.53;;;7.44;49.74
19508;BME280;40157;42.566;27.526;2023-02-15T09:06:39;102483.34;;;7.83;49.88
19508;BME280;40157;42.566;27.526;2023-02-15T09:08:40;102464.34;;;7.85;49.39
19508;BME280;40157;42.566;27.526;2023-02-15T09:10:41;102473.34;;;7.90;48.99
19508;BME280;40157;42.566;27.526;2023-02-15T09:12:41;102487.00;;;8.01;48.90
19508;BME280;40157;42.566;27.526;2023-02-15T09:14:42;102501.13;;;8.05;49.21
19508;BME280;40157;42.566;27.526;2023-02-15T09:16:44;102480.16;;;8.03;49.28
19508;BME280;40157;42.566;27.526;2023-02-15T09:18:50;102486.09;;;8.01;48.62
19508;BME280;40157;42.566;27.526;2023-02-15T09:20:51;102489.34;;;7.96;48.64
19508;BME280;40157;42.566;27.526;2023-02-15T09:22:52;102485.41;;;7.88;48.74
19508;BME280;40157;42.566;27.526;2023-02-15T09:24:54;102482.00;;;7.89;50.00
19508;BME280;40157;42.566;27.526;2023-02-15T09:26:54;102484.34;;;7.85;49.12
19508;BME280;40157;42.566;27.526;2023-02-15T09:28:57;102476.78;;;7.89;49.73
19508;BME280;40157;42.566;27.526;2023-02-15T09:31:18;102470.09;;;7.94;49.63
19508;BME280;40157;42.566;27.526;2023-02-15T09:33:19;102465.84;;;7.96;49.54
19508;BME280;40157;42.566;27.526;2023-02-15T09:35:20;102473.94;;;8.01;49.08
19508;BME280;40157;42.566;27.526;2023-02-15T09:37:20;102481.19;;;8.07;48.92
19508;BME280;40157;42.566;27.526;2023-02-15T09:39:25;102481.19;;;8.07;48.91
19508;BME280;40157;42.566;27.526;2023-02-15T09:48:25;102486.16;;;8.02;49.35
19508;BME280;40157;42.566;27.526;2023-02-15T09:53:10;102478.41;;;8.04;49.79
19508;BME280;40157;42.566;27.526;2023-02-15T10:02:38;102469.13;;;8.25;49.28
19508;BME280;40157;42.566;27.526;2023-02-15T10:07:48;102440.41;;;8.25;48.84
19508;BME280;40157;42.566;27.526;2023-02-15T10:19:21;102471.13;;;8.62;49.48
19508;BME280;40157;42.566;27.526;2023-02-15T10:22:13;102461.66;;;8.64;47.57
19508;BME280;40157;42.566;27.526;2023-02-15T10:26:43;102455.84;;;8.70;47.55
19508;BME280;40157;42.566;27.526;2023-02-15T10:33:41;102444.28;;;8.99;47.78
19508;BME280;40157;42.566;27.526;2023-02-15T10:42:25;102445.34;;;9.21;46.53
19508;BME280;40157;42.566;27.526;2023-02-15T10:44:52;102452.13;;;9.35;46.30
19508;BME280;40157;42.566;27.526;2023-02-15T10:49:47;102446.44;;;9.62;45.79
19508;BME280;40157;42.566;27.526;2023-02-15T10:59:08;102436.31;;;9.88;44.43
19508;BME280;40157;42.566;27.526;2023-02-15T11:03:18;102438.25;;;9.92;44.25
19508;BME280;40157;42.566;27.526;2023-02-15T11:07:39;102425.53;;;9.81;44.61
19508;BME280;40157;42.566;27.526;2023-02-15T11:09:44;102422.03;;;9.81;44.44
19508;BME280;40157;42.566;27.526;2023-02-15T11:11:54;102420.44;;;9.85;44.38
19508;BME280;40157;42.566;27.526;2023-02-15T11:14:02;102420.88;;;9.94;45.00
19508;BME280;40157;42.566;27.526;2023-02-15T11:16:18;102435.50;;;10.08;44.54
19508;BME280;40157;42.566;27.526;2023-02-15T11:18:39;102434.00;;;10.13;44.54
19508;BME280;40157;42.566;27.526;2023-02-15T11:20:50;102425.16;;;10.11;44.66
19508;BME280;40157;42.566;27.526;2023-02-15T11:22:53;102431.72;;;10.21;44.02
19508;BME280;40157;42.566;27.526;2023-02-15T11:24:54;102351.25;;;9.79;44.01
19508;BME280;40157;42.566;27.526;2023-02-15T11:27:00;102427.53;;;10.25;44.17
19508;BME280;40157;42.566;27.526;2023-02-15T11:31:53;102424.19;;;10.29;43.34
19508;BME280;40157;42.566;27.526;2023-02-15T11:33:59;102403.03;;;10.24;43.48
19508;BME280;40157;42.566;27.526;2023-02-15T11:36:05;102423.28;;;10.46;43.56
19508;BME280;40157;42.566;27.526;2023-02-15T11:38:17;102420.50;;;10.63;43.49
19508;BME280;40157;42.566;27.526;2023-02-15T11:40:26;102418.53;;;10.78;43.50
19508;BME280;40157;42.566;27.526;2023-02-15T11:42:29;102405.66;;;10.84;43.02
19508;BME280;40157;42.566;27.526;2023-02-15T11:44:45;102416.94;;;11.03;42.57
19508;BME280;40157;42.566;27.526;2023-02-15T11:46:49;102402.06;;;11.03;41.98
19508;BME280;40157;42.566;27.526;2023-02-15T11:48:50;102385.03;;;10.93;41.88
19508;BME280;40157;42.566;27.526;2023-02-15T11:50:50;102354.72;;;10.79;42.11
19508;BME280;40157;42.566;27.526;2023-02-15T11:52:53;102403.72;;;11.22;41.79
19508;BME280;40157;42.566;27.526;2023-02-15T11:54:56;102402.63;;;11.17;41.13
19508;BME280;40157;42.566;27.526;2023-02-15T11:57:01;102377.63;;;11.04;40.75
19508;BME280;40157;42.566;27.526;2023-02-15T11:59:08;102407.47;;;11.29;41.62
19508;BME280;40157;42.566;27.526;2023-02-15T12:01:43;102408.47;;;11.31;41.06
19508;BME280;40157;42.566;27.526;2023-02-15T12:03:51;102389.88;;;11.26;41.05
19508;BME280;40157;42.566;27.526;2023-02-15T12:06:00;102413.88;;;11.36;41.27